Time;durP1;ratioP1;P1;durP2;ratioP2;P2;SDS_P1;SDS_P2;PMS_P1;PMS_P2;Temp;Humidity;BMP_temperature;BMP_pressure;BME280_temperature;BME280_humidity;BME280_pressure;Samples;Min_cycle;Max_cycle;Signal;HPM_P1;HPM_P2
2023/03/18 00:01:02;;;;;;;9.02;5.78;;;5.80;38.50;;;;;;4983988;28;115560;-79
2023/03/18 00:03:31;;;;;;;10.23;6.30;;;5.90;38.40;;;;;;4930531;28;114599;-78
2023/03/18 00:06:15;;;;;;;12.35;6.57;;;5.80;38.60;;;;;;4948300;28;114435;-80
2023/03/18 00:08:45;;;;;;;11.57;6.05;;;5.80;38.90;;;;;;4963408;28;114429;-79
2023/03/18 00:11:14;;;;;;;11.25;6.07;;;5.70;38.80;;;;;;4962392;28;119634;-79
2023/03/18 00:13:42;;;;;;;10.65;6.80;;;5.70;38.60;;;;;;4963466;28;114708;-80
2023/03/18 00:16:10;;;;;;;11.00;5.63;;;5.70;38.80;;;;;;4963819;28;114469;-79
2023/03/18 00:18:38;;;;;;;11.23;6.13;;;5.70;38.60;;;;;;4947252;28;114778;-79
2023/03/18 00:21:05;;;;;;;11.40;6.07;;;5.60;38.60;;;;;;4961551;28;115155;-79
2023/03/18 00:23:32;;;;;;;10.40;6.07;;;5.60;38.60;;;;;;4944124;28;116563;-79
2023/03/18 00:26:00;;;;;;;10.93;6.43;;;5.60;38.80;;;;;;4982422;28;115791;-79
2023/03/18 00:28:28;;;;;;;12.63;6.05;;;5.50;38.70;;;;;;4984445;28;114519;-79
2023/03/18 00:31:09;;;;;;;13.70;6.40;;;5.50;38.50;;;;;;4969286;28;115089;-79
2023/03/18 00:33:38;;;;;;;12.05;6.47;;;5.50;38.40;;;;;;4963804;28;114650;-79
2023/03/18 00:36:09;;;;;;;13.88;6.00;;;5.40;38.30;;;;;;4947747;28;118381;-78
2023/03/18 00:38:36;;;;;;;12.27;6.10;;;5.40;38.40;;;;;;4930123;28;119258;-80
2023/03/18 00:41:10;;;;;;;10.98;6.47;;;5.30;38.50;;;;;;4963665;28;115051;-79
2023/03/18 00:43:48;;;;;;;12.05;5.93;;;5.30;38.60;;;;;;4962447;28;116945;-80
2023/03/18 00:46:23;;;;;;;9.93;6.00;;;5.20;38.70;;;;;;4947835;28;118048;-79
2023/03/18 00:48:53;;;;;;;12.52;5.75;;;5.20;38.70;;;;;;4946923;28;114471;-80
2023/03/18 00:51:22;;;;;;;9.95;5.40;;;5.20;38.90;;;;;;4964497;28;115192;-78
2023/03/18 00:53:56;;;;;;;13.38;6.93;;;5.30;39.00;;;;;;4965909;28;114558;-79
2023/03/18 00:56:27;;;;;;;12.05;6.20;;;5.30;39.40;;;;;;4982590;28;114695;-80
2023/03/18 00:58:56;;;;;;;9.57;6.30;;;5.30;39.20;;;;;;4982622;28;114654;-79
2023/03/18 01:01:24;;;;;;;12.80;6.47;;;5.30;39.40;;;;;;4965697;28;115133;-78
2023/03/18 01:03:52;;;;;;;16.33;5.93;;;5.30;39.60;;;;;;4983597;28;114944;-80
2023/03/18 01:06:30;;;;;;;10.23;6.03;;;5.30;39.90;;;;;;4990398;28;114824;-78
2023/03/18 01:08:57;;;;;;;13.05;6.63;;;5.30;39.90;;;;;;4970156;28;114985;-80
2023/03/18 01:11:32;;;;;;;13.10;6.88;;;5.20;39.80;;;;;;4980876;28;116049;-79
2023/03/18 01:13:59;;;;;;;15.82;7.93;;;5.20;39.90;;;;;;4969443;28;116249;-78
2023/03/18 01:16:28;;;;;;;11.40;7.38;;;5.20;40.40;;;;;;4982624;28;114656;-79
2023/03/18 01:18:56;;;;;;;13.93;8.00;;;5.20;40.50;;;;;;4966324;28;114455;-79
2023/03/18 01:21:24;;;;;;;17.65;8.88;;;5.20;40.50;;;;;;4984994;28;115416;-79
2023/03/18 01:23:55;;;;;;;16.67;9.15;;;5.10;40.80;;;;;;4985363;28;114695;-79
2023/03/18 01:26:24;;;;;;;18.30;9.57;;;5.10;41.00;;;;;;4985707;28;114332;-81
2023/03/18 01:28:54;;;;;;;17.65;9.75;;;4.90;41.50;;;;;;4987053;28;114695;-78
2023/03/18 01:31:23;;;;;;;18.60;9.48;;;4.90;41.70;;;;;;4980520;28;115038;-79
2023/03/18 01:33:55;;;;;;;17.90;9.25;;;4.90;41.90;;;;;;4933981;28;114549;-79
2023/03/18 01:36:24;;;;;;;18.15;10.10;;;4.80;42.10;;;;;;4985781;28;114869;-79
2023/03/18 01:39:05;;;;;;;22.33;9.98;;;4.80;42.20;;;;;;4986311;28;114591;-79
2023/03/18 01:41:35;;;;;;;21.48;11.80;;;4.70;42.30;;;;;;4949041;28;117208;-81
2023/03/18 01:44:18;;;;;;;24.48;12.60;;;4.70;42.60;;;;;;4965198;28;114925;-78
2023/03/18 01:46:49;;;;;;;22.02;12.18;;;4.70;42.90;;;;;;4950110;28;114701;-79
2023/03/18 01:49:47;;;;;;;21.65;11.60;;;4.60;43.10;;;;;;4949267;28;114497;-78
2023/03/18 01:52:18;;;;;;;21.90;11.70;;;4.60;43.50;;;;;;4965040;28;115151;-80
2023/03/18 01:54:53;;;;;;;20.00;10.95;;;4.40;43.40;;;;;;4966197;28;114867;-80
2023/03/18 01:57:21;;;;;;;14.90;7.88;;;4.40;43.80;;;;;;4966102;28;114622;-78
2023/03/18 01:59:51;;;;;;;16.98;9.90;;;4.30;43.10;;;;;;4933855;28;114451;-78
2023/03/18 02:02:19;;;;;;;19.52;10.52;;;4.20;43.50;;;;;;4948030;28;115448;-78
2023/03/18 02:04:50;;;;;;;15.32;8.70;;;4.20;43.50;;;;;;4945225;28;114598;-78
2023/03/18 02:07:28;;;;;;;15.57;9.02;;;4.20;43.30;;;;;;4965971;28;114517;-79
2023/03/18 02:09:58;;;;;;;17.13;9.70;;;4.20;43.80;;;;;;4963983;28;114581;-78
2023/03/18 02:12:35;;;;;;;19.63;9.98;;;4.20;44.10;;;;;;4949145;28;115113;-79
2023/03/18 02:15:10;;;;;;;17.05;9.82;;;4.30;44.00;;;;;;4964915;28;114817;-78
2023/03/18 02:17:45;;;;;;;18.75;9.82;;;4.30;43.90;;;;;;4949250;28;115248;-79
2023/03/18 02:20:33;;;;;;;17.48;9.32;;;4.40;44.10;;;;;;4949766;28;114532;-77
2023/03/18 02:23:19;;;;;;;19.67;9.57;;;4.40;44.10;;;;;;4948155;28;116377;-79
2023/03/18 02:26:01;;;;;;;19.25;9.50;;;4.40;44.20;;;;;;4934234;28;115760;-78
2023/03/18 02:28:30;;;;;;;19.20;9.70;;;4.30;44.10;;;;;;4968550;28;114466;-78
2023/03/18 02:31:00;;;;;;;17.05;9.55;;;4.30;43.90;;;;;;4968976;28;114595;-79
2023/03/18 02:33:33;;;;;;;17.42;9.60;;;4.20;44.10;;;;;;4931420;28;115171;-78
2023/03/18 02:36:06;;;;;;;16.80;9.30;;;4.30;44.00;;;;;;4943039;28;115057;-79
2023/03/18 02:38:44;;;;;;;19.17;9.10;;;4.30;44.00;;;;;;4934958;28;115218;-80
2023/03/18 02:41:20;;;;;;;21.05;9.63;;;4.30;44.00;;;;;;4970760;28;114562;-78
2023/03/18 02:43:48;;;;;;;15.32;9.13;;;4.30;44.00;;;;;;4984355;28;115091;-79
2023/03/18 02:46:54;;;;;;;16.95;9.13;;;4.30;43.80;;;;;;4948742;28;114627;-79
2023/03/18 02:49:22;;;;;;;15.80;8.97;;;4.30;44.00;;;;;;4964738;28;114458;-79
2023/03/18 02:51:50;;;;;;;15.60;8.75;;;4.20;43.90;;;;;;4949478;28;114572;-78
2023/03/18 02:54:28;;;;;;;15.93;8.13;;;4.20;43.90;;;;;;4947131;28;116406;-79
2023/03/18 02:56:56;;;;;;;16.73;9.10;;;4.20;44.10;;;;;;4971864;28;114609;-79
2023/03/18 02:59:24;;;;;;;14.50;8.55;;;4.20;44.40;;;;;;4987532;28;114721;-79
2023/03/18 03:01:52;;;;;;;14.18;8.63;;;4.20;44.10;;;;;;4984844;28;114309;-80
2023/03/18 03:04:22;;;;;;;12.05;7.43;;;4.20;44.40;;;;;;4984424;28;115278;-79
2023/03/18 03:06:52;;;;;;;16.33;8.85;;;4.20;44.30;;;;;;4983786;28;115924;-78
2023/03/18 03:09:30;;;;;;;15.73;7.97;;;4.20;44.30;;;;;;4985055;28;114359;-77
2023/03/18 03:11:58;;;;;;;16.08;8.70;;;4.20;44.20;;;;;;4984685;28;114786;-79
2023/03/18 03:14:26;;;;;;;13.65;7.05;;;4.20;44.10;;;;;;4967562;28;115044;-79
2023/03/18 03:16:58;;;;;;;15.25;8.38;;;4.20;44.50;;;;;;4983616;28;114541;-80
2023/03/18 03:19:25;;;;;;;13.20;8.00;;;4.20;44.20;;;;;;4955774;28;116637;-79
2023/03/18 03:21:54;;;;;;;15.25;7.85;;;4.20;44.30;;;;;;4964744;28;114602;-79
2023/03/18 03:24:24;;;;;;;14.23;7.38;;;4.20;44.30;;;;;;4964501;28;115117;-80
2023/03/18 03:26:51;;;;;;;15.98;7.97;;;4.20;44.50;;;;;;4963807;28;114794;-79
2023/03/18 03:29:19;;;;;;;16.10;8.32;;;4.20;44.40;;;;;;4964730;28;114750;-79
2023/03/18 03:31:48;;;;;;;12.63;8.00;;;4.20;44.40;;;;;;4949325;28;114424;-80
2023/03/18 03:34:15;;;;;;;15.30;7.47;;;4.20;44.70;;;;;;4963440;28;115655;-79
2023/03/18 03:36:43;;;;;;;12.63;6.70;;;4.20;44.30;;;;;;4964274;28;114735;-79
2023/03/18 03:39:11;;;;;;;13.63;7.50;;;4.20;44.00;;;;;;4965138;28;114985;-80
2023/03/18 03:41:38;;;;;;;12.23;6.80;;;4.20;44.10;;;;;;4948271;28;114548;-79
2023/03/18 03:44:06;;;;;;;11.88;6.65;;;4.20;43.80;;;;;;4954350;28;115876;-79
2023/03/18 03:46:34;;;;;;;11.55;6.43;;;4.20;44.10;;;;;;4964968;28;114514;-79
2023/03/18 03:49:03;;;;;;;12.07;6.03;;;4.20;43.80;;;;;;4964319;28;114845;-79
2023/03/18 03:51:31;;;;;;;10.43;6.07;;;4.10;43.50;;;;;;4963875;28;114707;-79
2023/03/18 03:53:58;;;;;;;12.30;6.45;;;4.10;43.50;;;;;;4963482;28;115243;-79
2023/03/18 03:56:27;;;;;;;12.50;6.30;;;4.20;43.40;;;;;;4963464;28;114599;-79
2023/03/18 03:58:55;;;;;;;11.05;6.20;;;4.20;43.10;;;;;;4948309;28;114811;-79
2023/03/18 04:01:26;;;;;;;13.73;6.07;;;4.10;43.10;;;;;;4982890;28;115587;-78
2023/03/18 04:03:56;;;;;;;10.40;5.55;;;4.20;42.90;;;;;;4983259;28;116127;-78
2023/03/18 04:06:23;;;;;;;9.45;5.95;;;4.10;43.30;;;;;;4966296;28;114691;-79
2023/03/18 04:08:58;;;;;;;11.50;5.78;;;4.10;43.00;;;;;;4979863;28;114641;-79
2023/03/18 04:11:25;;;;;;;8.48;5.25;;;4.20;42.90;;;;;;4968554;28;115944;-78
2023/03/18 04:13:53;;;;;;;9.10;5.38;;;4.20;42.80;;;;;;4973817;28;117425;-79
2023/03/18 04:16:21;;;;;;;12.23;6.38;;;4.20;42.80;;;;;;4946564;28;115868;-79
2023/03/18 04:18:48;;;;;;;9.95;5.65;;;4.20;42.80;;;;;;4947986;28;115670;-79
2023/03/18 04:21:16;;;;;;;12.02;6.70;;;4.20;42.80;;;;;;4964032;28;114468;-79
2023/03/18 04:23:49;;;;;;;10.77;6.40;;;4.20;42.50;;;;;;4963261;28;115312;-79
2023/03/18 04:26:18;;;;;;;12.38;6.15;;;4.20;42.70;;;;;;4963138;28;115772;-79
2023/03/18 04:28:46;;;;;;;11.32;6.15;;;4.20;42.90;;;;;;4963830;28;114480;-79
2023/03/18 04:31:15;;;;;;;11.05;5.68;;;4.20;42.60;;;;;;4964682;28;114406;-79
2023/03/18 04:33:43;;;;;;;13.13;5.93;;;4.20;42.70;;;;;;4962724;28;115182;-78
2023/03/18 04:36:10;;;;;;;11.90;5.65;;;4.20;42.70;;;;;;4946831;28;117008;-79
2023/03/18 04:38:38;;;;;;;9.60;5.80;;;4.20;42.40;;;;;;4963404;28;114347;-79
2023/03/18 04:41:06;;;;;;;11.65;5.95;;;4.20;42.70;;;;;;4948613;28;116184;-79
2023/03/18 04:43:33;;;;;;;12.00;5.80;;;4.10;42.90;;;;;;4965173;28;115091;-79
2023/03/18 04:46:01;;;;;;;10.80;6.28;;;4.20;43.00;;;;;;4964788;28;115039;-80
2023/03/18 04:48:29;;;;;;;11.60;5.70;;;4.10;42.80;;;;;;4986750;28;114356;-79
2023/03/18 04:51:01;;;;;;;9.68;5.85;;;4.10;42.90;;;;;;4972980;28;114378;-78
2023/03/18 04:53:30;;;;;;;10.63;6.07;;;4.20;43.00;;;;;;4966035;28;115201;-80
2023/03/18 04:55:57;;;;;;;9.70;6.15;;;4.10;43.10;;;;;;4966236;28;118199;-78
2023/03/18 04:58:32;;;;;;;10.77;5.85;;;4.10;43.00;;;;;;4951758;28;114674;-79
2023/03/18 05:01:08;;;;;;;11.73;5.78;;;4.20;42.80;;;;;;4967018;28;114658;-79
2023/03/18 05:03:38;;;;;;;13.68;6.30;;;4.10;43.20;;;;;;4964566;28;116424;-79
2023/03/18 05:06:06;;;;;;;12.32;5.65;;;4.10;42.90;;;;;;4970303;28;117089;-79
2023/03/18 05:08:52;;;;;;;10.13;6.20;;;4.10;42.80;;;;;;4972922;28;114446;-80
2023/03/18 05:11:21;;;;;;;10.80;6.05;;;4.20;42.80;;;;;;4950904;28;114365;-78
2023/03/18 05:13:49;;;;;;;11.55;6.43;;;4.20;43.10;;;;;;4950105;28;115065;-78
2023/03/18 05:16:18;;;;;;;11.05;6.05;;;4.20;43.10;;;;;;4965415;28;118110;-78
2023/03/18 05:18:47;;;;;;;10.90;5.97;;;4.20;43.10;;;;;;4951241;28;114567;-78
2023/03/18 05:21:15;;;;;;;10.10;6.05;;;4.20;43.00;;;;;;4950646;28;114457;-78
2023/03/18 05:23:42;;;;;;;11.23;6.10;;;4.30;43.00;;;;;;4965425;28;117695;-78
2023/03/18 05:26:11;;;;;;;11.95;6.32;;;4.40;43.10;;;;;;4949922;28;115163;-79
2023/03/18 05:28:40;;;;;;;15.55;6.25;;;4.40;42.90;;;;;;4966601;28;114485;-79
2023/03/18 05:31:18;;;;;;;12.48;6.43;;;4.50;42.80;;;;;;4937146;28;114473;-79
2023/03/18 05:33:46;;;;;;;9.30;5.60;;;4.60;43.20;;;;;;4961488;28;117855;-78
2023/03/18 05:36:14;;;;;;;11.63;6.03;;;4.70;43.00;;;;;;4968667;28;114782;-78
2023/03/18 05:38:52;;;;;;;10.82;6.22;;;4.90;43.00;;;;;;4975941;28;119175;-79
2023/03/18 05:41:19;;;;;;;10.55;6.75;;;5.10;42.70;;;;;;4946798;28;114563;-79
2023/03/18 05:43:47;;;;;;;12.18;6.90;;;5.20;42.50;;;;;;4949403;28;118008;-78
2023/03/18 05:46:15;;;;;;;11.32;5.47;;;5.50;42.30;;;;;;4965470;28;114576;-79
2023/03/18 05:48:54;;;;;;;12.95;6.07;;;5.50;41.80;;;;;;4966790;28;114419;-78
2023/03/18 05:51:26;;;;;;;12.02;6.47;;;5.60;41.70;;;;;;4966227;28;114675;-79
2023/03/18 05:53:55;;;;;;;12.45;7.93;;;5.70;41.50;;;;;;4949253;28;115248;-79
2023/03/18 05:56:27;;;;;;;12.15;6.53;;;5.80;41.10;;;;;;4949855;28;114686;-79
2023/03/18 05:58:58;;;;;;;11.60;6.07;;;5.90;40.90;;;;;;4966130;28;119000;-79
2023/03/18 06:01:40;;;;;;;10.95;6.10;;;5.90;41.10;;;;;;4971507;28;114399;-79
2023/03/18 06:04:09;;;;;;;11.45;6.10;;;6.10;40.50;;;;;;4968310;28;117946;-79
2023/03/18 06:06:39;;;;;;;11.45;5.60;;;6.20;40.60;;;;;;4937020;28;116598;-78
2023/03/18 06:09:07;;;;;;;9.32;6.07;;;6.40;40.50;;;;;;4949907;28;117572;-79
2023/03/18 06:11:35;;;;;;;12.00;6.72;;;6.60;39.60;;;;;;4949425;28;114412;-78
2023/03/18 06:14:03;;;;;;;9.88;5.45;;;6.70;39.70;;;;;;4948163;28;115379;-79
2023/03/18 06:16:32;;;;;;;10.30;5.53;;;6.90;39.50;;;;;;4948274;28;114648;-79
2023/03/18 06:19:01;;;;;;;8.88;5.60;;;7.10;39.50;;;;;;4968730;28;114532;-79
2023/03/18 06:21:30;;;;;;;10.75;6.13;;;7.30;39.20;;;;;;4985333;28;114652;-79
2023/03/18 06:23:58;;;;;;;10.85;5.38;;;7.50;39.00;;;;;;4968112;28;115112;-79
2023/03/18 06:26:26;;;;;;;10.18;5.35;;;7.70;38.50;;;;;;4974210;28;114718;-80
2023/03/18 06:28:54;;;;;;;11.45;5.85;;;7.90;38.00;;;;;;4949586;28;114766;-79
2023/03/18 06:31:24;;;;;;;8.43;5.35;;;8.00;37.60;;;;;;4965860;28;114597;-79
2023/03/18 06:33:52;;;;;;;9.27;5.38;;;8.20;37.50;;;;;;4947436;28;115313;-79
2023/03/18 06:36:21;;;;;;;10.68;5.75;;;8.30;37.30;;;;;;4948510;28;115951;-79
2023/03/18 06:38:50;;;;;;;10.30;5.63;;;8.50;36.90;;;;;;4973264;28;114375;-79
2023/03/18 06:41:19;;;;;;;10.02;5.43;;;8.60;36.60;;;;;;4965843;28;114764;-79
2023/03/18 06:44:04;;;;;;;9.10;5.40;;;8.60;36.10;;;;;;4950780;28;115038;-77
2023/03/18 06:46:31;;;;;;;11.48;5.53;;;8.70;36.00;;;;;;4965418;28;115405;-78
2023/03/18 06:49:01;;;;;;;12.55;5.93;;;8.60;35.60;;;;;;4948676;28;114774;-79
2023/03/18 06:51:33;;;;;;;10.13;5.25;;;8.70;35.70;;;;;;4965201;28;114472;-79
2023/03/18 06:54:00;;;;;;;13.45;6.30;;;8.70;35.20;;;;;;4964194;28;115100;-80
2023/03/18 06:56:32;;;;;;;9.80;5.20;;;8.70;35.60;;;;;;4948159;28;114724;-80
2023/03/18 06:59:08;;;;;;;8.07;5.38;;;8.70;35.10;;;;;;4967861;28;114405;-79
2023/03/18 07:01:37;;;;;;;10.68;5.78;;;8.80;35.20;;;;;;4952626;28;114695;-79
2023/03/18 07:04:05;;;;;;;8.77;5.90;;;8.90;35.10;;;;;;4947303;28;115121;-79
2023/03/18 07:06:33;;;;;;;9.30;4.88;;;9.00;34.80;;;;;;4963957;28;114612;-79
2023/03/18 07:09:00;;;;;;;7.80;5.25;;;9.10;34.40;;;;;;4964705;28;114876;-79
2023/03/18 07:11:28;;;;;;;7.15;4.72;;;9.10;34.50;;;;;;4963711;28;114728;-79
2023/03/18 07:13:57;;;;;;;8.98;4.95;;;9.20;34.40;;;;;;4963585;28;117510;-80
2023/03/18 07:16:29;;;;;;;8.80;4.90;;;9.30;34.30;;;;;;4963922;28;115085;-79
2023/03/18 07:19:00;;;;;;;8.32;4.93;;;9.30;33.70;;;;;;4965056;28;114318;-79
2023/03/18 07:21:29;;;;;;;10.73;4.95;;;9.30;33.70;;;;;;4965021;28;114540;-79
2023/03/18 07:23:58;;;;;;;9.25;5.03;;;9.30;33.60;;;;;;4964034;28;115238;-79
2023/03/18 07:26:26;;;;;;;7.88;4.38;;;9.30;33.10;;;;;;4947719;28;115284;-79
2023/03/18 07:28:53;;;;;;;9.02;4.82;;;9.30;32.70;;;;;;4985306;28;114674;-79
2023/03/18 07:31:21;;;;;;;9.27;5.43;;;9.20;32.70;;;;;;4985731;28;114355;-79
2023/03/18 07:33:48;;;;;;;8.07;4.88;;;9.20;33.30;;;;;;4983687;28;115778;-79
2023/03/18 07:36:16;;;;;;;8.60;5.32;;;9.30;33.40;;;;;;4983303;28;114644;-80
2023/03/18 07:38:43;;;;;;;9.77;4.85;;;9.50;33.10;;;;;;4984417;28;114752;-80
2023/03/18 07:41:11;;;;;;;7.57;4.57;;;9.50;32.80;;;;;;4985371;28;114474;-79
2023/03/18 07:43:39;;;;;;;9.43;5.28;;;9.60;32.90;;;;;;4984386;28;115144;-79
2023/03/18 07:46:06;;;;;;;10.63;4.80;;;9.70;32.70;;;;;;4984895;28;114879;-79
2023/03/18 07:48:33;;;;;;;8.85;4.82;;;9.70;32.70;;;;;;4985137;28;114294;-80
2023/03/18 07:51:01;;;;;;;9.70;4.80;;;9.80;32.10;;;;;;4967963;28;114477;-79
2023/03/18 07:53:28;;;;;;;8.82;5.30;;;9.90;32.00;;;;;;4983249;28;115075;-79
2023/03/18 07:55:55;;;;;;;9.98;4.97;;;9.90;32.00;;;;;;4970136;28;114689;-79
2023/03/18 07:58:24;;;;;;;8.98;5.15;;;10.00;31.90;;;;;;4964301;28;114379;-81
2023/03/18 08:00:52;;;;;;;9.77;5.18;;;10.10;31.80;;;;;;4965062;28;114420;-80
2023/03/18 08:03:19;;;;;;;8.45;5.22;;;10.20;31.60;;;;;;4962899;28;115197;-80
2023/03/18 08:05:46;;;;;;;8.60;4.50;;;10.30;31.40;;;;;;4963088;28;114899;-80
2023/03/18 08:08:15;;;;;;;7.88;4.47;;;10.40;31.10;;;;;;4965053;28;114463;-80
2023/03/18 08:10:42;;;;;;;7.32;4.90;;;10.40;31.00;;;;;;4931697;28;114767;-80
2023/03/18 08:13:09;;;;;;;7.40;4.55;;;10.40;30.80;;;;;;4964246;28;115079;-79
2023/03/18 08:15:38;;;;;;;9.23;4.65;;;10.40;30.00;;;;;;4964588;28;114694;-80
2023/03/18 08:18:05;;;;;;;9.50;4.75;;;10.30;29.40;;;;;;4963700;28;117933;-80
2023/03/18 08:20:35;;;;;;;7.57;4.50;;;10.10;29.40;;;;;;4964890;28;114496;-81
2023/03/18 08:23:03;;;;;;;7.13;3.95;;;10.10;29.50;;;;;;4959841;28;115092;-80
2023/03/18 08:25:31;;;;;;;6.43;4.05;;;10.00;29.70;;;;;;4983340;28;117467;-80
2023/03/18 08:27:59;;;;;;;7.97;3.75;;;10.10;29.50;;;;;;4994001;28;114442;-80
2023/03/18 08:30:27;;;;;;;7.43;4.18;;;10.20;29.10;;;;;;4988654;28;114220;-80
2023/03/18 08:32:55;;;;;;;7.03;3.92;;;10.20;29.40;;;;;;4963396;28;115128;-80
2023/03/18 08:35:22;;;;;;;8.80;4.32;;;10.30;29.00;;;;;;4963270;28;114637;-80
2023/03/18 08:37:50;;;;;;;9.40;4.30;;;10.30;29.00;;;;;;4976342;28;114366;-80
2023/03/18 08:40:19;;;;;;;8.80;3.95;;;10.40;28.50;;;;;;4968957;28;114663;-80
2023/03/18 08:42:47;;;;;;;7.43;4.50;;;10.40;28.80;;;;;;4963414;28;115114;-80
2023/03/18 08:45:14;;;;;;;8.07;4.20;;;10.60;28.50;;;;;;4963595;28;116887;-81
2023/03/18 08:47:44;;;;;;;7.80;4.15;;;10.70;28.10;;;;;;4965079;28;114665;-81
2023/03/18 08:50:13;;;;;;;8.70;4.10;;;10.70;28.40;;;;;;4964988;28;114311;-81
2023/03/18 08:52:40;;;;;;;6.65;4.15;;;10.70;28.30;;;;;;4973279;28;115701;-81
2023/03/18 08:55:08;;;;;;;7.05;4.07;;;10.90;28.30;;;;;;4983304;28;114625;-81
2023/03/18 08:57:36;;;;;;;6.53;3.67;;;10.90;27.10;;;;;;4952583;28;114506;-81
2023/03/18 09:00:05;;;;;;;8.57;4.10;;;10.90;27.40;;;;;;4962351;28;114337;-81
2023/03/18 09:02:32;;;;;;;6.80;4.13;;;10.90;27.70;;;;;;4967823;28;115085;-80
2023/03/18 09:04:59;;;;;;;8.25;4.80;;;10.90;27.80;;;;;;4967913;28;115224;-79
2023/03/18 09:07:27;;;;;;;8.98;4.57;;;11.10;28.50;;;;;;4966300;28;114435;-79
2023/03/18 09:09:54;;;;;;;7.47;4.13;;;11.40;27.60;;;;;;4962768;28;114750;-80
2023/03/18 09:12:22;;;;;;;7.38;3.90;;;11.50;27.00;;;;;;4964251;28;115220;-81
2023/03/18 09:14:49;;;;;;;8.07;4.10;;;11.50;26.80;;;;;;4963147;28;114961;-82
2023/03/18 09:17:16;;;;;;;7.18;4.22;;;11.50;26.30;;;;;;4964280;28;116434;-80
2023/03/18 09:19:44;;;;;;;7.28;4.35;;;11.30;26.40;;;;;;4947375;28;114425;-81
2023/03/18 09:22:11;;;;;;;7.35;4.10;;;11.20;26.90;;;;;;4946435;28;115428;-80
2023/03/18 09:24:39;;;;;;;8.40;4.68;;;11.30;26.90;;;;;;4962707;28;116889;-79
2023/03/18 09:27:09;;;;;;;8.15;4.60;;;11.30;26.80;;;;;;4962190;28;114699;-80
2023/03/18 09:29:37;;;;;;;8.63;4.35;;;11.40;27.00;;;;;;4964744;28;114548;-80
2023/03/18 09:32:04;;;;;;;7.85;3.85;;;11.60;27.00;;;;;;4963137;28;115822;-81
2023/03/18 09:34:32;;;;;;;8.23;4.82;;;11.70;26.60;;;;;;4962064;28;115303;-80
2023/03/18 09:36:59;;;;;;;9.82;4.15;;;11.70;26.10;;;;;;4944512;28;114798;-80
2023/03/18 09:39:26;;;;;;;7.68;4.35;;;11.70;26.50;;;;;;4958827;28;116095;-80
2023/03/18 09:42:15;;;;;;;8.50;4.57;;;11.70;26.50;;;;;;4964006;28;115268;-80
2023/03/18 09:44:44;;;;;;;7.55;4.53;;;11.90;26.70;;;;;;4949271;28;118152;-80
2023/03/18 09:47:57;;;;;;;7.20;4.90;;;12.00;26.50;;;;;;4964408;28;115431;-80
2023/03/18 09:50:58;;;;;;;6.70;3.85;;;12.20;26.20;;;;;;4964193;28;114881;-82
2023/03/18 09:53:36;;;;;;;7.25;3.15;;;12.50;25.70;;;;;;4950936;28;115469;-81
2023/03/18 09:56:06;;;;;;;5.85;3.00;;;12.70;23.50;;;;;;4955466;28;114676;-80
2023/03/18 09:58:49;;;;;;;4.90;3.20;;;12.70;23.70;;;;;;4930248;28;114614;-81
2023/03/18 10:01:16;;;;;;;7.55;3.33;;;12.80;23.40;;;;;;4964422;28;116143;-78
2023/03/18 10:03:53;;;;;;;5.97;3.33;;;12.90;23.90;;;;;;4950182;28;115412;-80
2023/03/18 10:06:22;;;;;;;5.72;3.70;;;13.10;24.10;;;;;;4965569;28;114598;-81
2023/03/18 10:09:16;;;;;;;6.25;3.45;;;13.20;23.80;;;;;;4914617;28;114948;-82
2023/03/18 10:11:47;;;;;;;6.80;3.80;;;13.20;23.80;;;;;;4961800;28;114633;-82
2023/03/18 10:14:42;;;;;;;6.82;3.78;;;13.30;23.80;;;;;;4948616;28;117559;-81
2023/03/18 10:17:29;;;;;;;7.05;3.70;;;13.50;23.80;;;;;;4949515;28;116049;-80
2023/03/18 10:19:59;;;;;;;7.28;3.78;;;13.60;23.70;;;;;;4968329;28;114581;-80
2023/03/18 10:23:13;;;;;;;5.70;3.45;;;13.70;24.10;;;;;;4965263;28;114627;-82
2023/03/18 10:25:53;;;;;;;7.97;3.22;;;13.80;23.50;;;;;;4964627;28;115184;-81
2023/03/18 10:28:46;;;;;;;6.35;3.72;;;13.90;23.70;;;;;;4964585;28;115569;-82
2023/03/18 10:31:46;;;;;;;7.80;3.90;;;14.00;23.70;;;;;;4972435;28;114676;-82
2023/03/18 10:34:22;;;;;;;6.90;3.92;;;14.10;23.40;;;;;;4985229;28;114416;-82
2023/03/18 10:37:02;;;;;;;7.88;3.97;;;14.20;23.50;;;;;;4946850;28;115310;-82
2023/03/18 10:39:30;;;;;;;6.57;3.72;;;14.20;23.30;;;;;;4968732;28;114775;-80
2023/03/18 10:42:00;;;;;;;7.75;4.15;;;14.20;22.80;;;;;;4964751;28;115738;-81
2023/03/18 10:44:32;;;;;;;6.68;3.80;;;14.20;22.30;;;;;;4965314;28;114557;-81
2023/03/18 10:47:18;;;;;;;6.65;4.07;;;14.20;22.50;;;;;;4964112;28;116374;-80
2023/03/18 10:50:09;;;;;;;6.32;3.80;;;14.20;22.60;;;;;;4949656;28;117971;-81
2023/03/18 10:52:50;;;;;;;9.52;5.60;;;14.30;22.80;;;;;;4965469;28;114958;-81
2023/03/18 10:55:21;;;;;;;7.88;5.30;;;14.40;22.70;;;;;;4974049;28;114833;-80
2023/03/18 10:57:51;;;;;;;8.52;5.10;;;14.40;23.00;;;;;;4965651;28;115216;-80
2023/03/18 11:00:34;;;;;;;8.30;4.32;;;14.40;23.10;;;;;;4967343;28;114379;-82
2023/03/18 11:03:03;;;;;;;7.72;4.57;;;14.60;22.50;;;;;;4933142;28;115240;-82
2023/03/18 11:05:33;;;;;;;8.05;4.30;;;14.50;21.90;;;;;;4965699;28;114426;-80
2023/03/18 11:08:04;;;;;;;8.35;4.15;;;14.40;22.00;;;;;;4943777;28;116477;-81
2023/03/18 11:10:39;;;;;;;6.45;4.13;;;14.40;22.10;;;;;;4947723;28;114647;-82
2023/03/18 11:13:06;;;;;;;8.27;3.83;;;14.40;22.40;;;;;;4965388;28;114560;-81
2023/03/18 11:15:36;;;;;;;7.13;4.20;;;14.50;21.90;;;;;;4966431;28;114351;-80
2023/03/18 11:18:04;;;;;;;8.00;4.13;;;14.40;21.90;;;;;;4963166;28;116532;-81
2023/03/18 11:20:44;;;;;;;6.97;3.63;;;14.40;22.30;;;;;;4963995;28;116940;-80
2023/03/18 11:23:54;;;;;;;8.32;4.82;;;14.50;22.50;;;;;;4965056;28;114560;-79
2023/03/18 11:26:28;;;;;;;7.90;4.93;;;14.50;22.50;;;;;;4952251;28;114497;-79
2023/03/18 11:28:58;;;;;;;7.32;3.70;;;14.60;22.70;;;;;;4947604;28;116122;-80
2023/03/18 11:31:26;;;;;;;6.57;4.28;;;14.50;22.60;;;;;;4965126;28;114701;-80
2023/03/18 11:33:57;;;;;;;6.93;3.72;;;14.60;22.40;;;;;;4964991;28;114519;-80
2023/03/18 11:36:26;;;;;;;5.47;4.00;;;14.60;22.20;;;;;;4965239;28;114520;-79
2023/03/18 11:39:02;;;;;;;8.02;3.38;;;14.50;22.50;;;;;;4963686;28;115081;-79
2023/03/18 11:41:30;;;;;;;5.07;2.75;;;14.60;22.20;;;;;;4965201;28;114760;-79
2023/03/18 11:43:58;;;;;;;6.75;3.50;;;14.60;21.90;;;;;;4962977;28;114672;-79
2023/03/18 11:46:49;;;;;;;5.93;3.35;;;14.50;21.70;;;;;;4964652;28;114417;-79
2023/03/18 11:49:20;;;;;;;5.47;3.38;;;14.60;21.60;;;;;;4945311;28;116451;-79
2023/03/18 11:51:47;;;;;;;6.78;3.40;;;14.40;21.50;;;;;;4946991;28;115525;-79
2023/03/18 11:54:21;;;;;;;5.15;3.30;;;14.40;22.10;;;;;;4964732;28;114814;-79
2023/03/18 11:57:00;;;;;;;6.65;3.42;;;14.50;21.70;;;;;;4963045;28;114594;-81
2023/03/18 11:59:31;;;;;;;6.60;3.33;;;14.50;21.80;;;;;;4945376;28;116601;-82
2023/03/18 12:02:59;;;;;;;6.45;3.20;;;14.40;22.00;;;;;;4964563;28;114894;-83
2023/03/18 12:05:53;;;;;;;7.10;3.38;;;14.50;22.20;;;;;;4962113;28;114567;-82
2023/03/18 12:08:35;;;;;;;4.97;3.00;;;14.50;22.10;;;;;;4968349;28;114779;-81
2023/03/18 12:11:37;;;;;;;5.72;3.17;;;14.50;22.20;;;;;;4983035;28;115558;-80
2023/03/18 12:14:27;;;;;;;10.85;3.85;;;14.50;22.30;;;;;;4983656;28;114614;-81
2023/03/18 12:17:06;;;;;;;5.30;3.20;;;14.40;22.60;;;;;;4962620;28;117732;-80
2023/03/18 12:19:54;;;;;;;5.45;3.72;;;14.50;22.40;;;;;;4963340;28;114732;-81
2023/03/18 12:22:56;;;;;;;6.60;3.65;;;14.50;22.00;;;;;;4961534;28;115450;-81
2023/03/18 12:26:04;;;;;;;6.25;3.15;;;14.50;22.40;;;;;;4944119;28;114852;-81
2023/03/18 12:29:10;;;;;;;6.75;3.45;;;14.40;22.20;;;;;;4960804;28;114519;-81
2023/03/18 12:32:04;;;;;;;8.80;3.63;;;14.50;22.50;;;;;;4962654;28;115792;-79
2023/03/18 12:34:58;;;;;;;7.47;3.90;;;14.50;22.60;;;;;;4962991;28;115482;-81
2023/03/18 12:38:18;;;;;;;6.85;3.97;;;14.50;22.50;;;;;;4963546;28;114663;-78
2023/03/18 12:41:01;;;;;;;8.25;3.88;;;14.50;22.00;;;;;;4976598;28;114661;-81
2023/03/18 12:44:01;;;;;;;6.70;3.70;;;14.40;22.40;;;;;;4963305;28;114659;-81
2023/03/18 12:46:32;;;;;;;8.15;3.72;;;14.40;22.70;;;;;;4979283;28;115695;-80
2023/03/18 12:49:11;;;;;;;5.78;3.38;;;14.30;23.10;;;;;;4982431;28;115494;-81
2023/03/18 12:52:06;;;;;;;6.82;3.85;;;14.30;22.70;;;;;;4961670;28;114333;-80
2023/03/18 12:54:39;;;;;;;6.93;3.72;;;14.40;23.20;;;;;;4962698;28;115047;-81
2023/03/18 12:57:44;;;;;;;8.23;3.72;;;14.40;23.00;;;;;;4968149;28;115830;-80
2023/03/18 13:00:48;;;;;;;6.63;3.58;;;14.40;23.00;;;;;;4983666;28;114691;-79
2023/03/18 13:03:39;;;;;;;7.40;3.78;;;14.50;22.80;;;;;;4964533;28;114576;-80
2023/03/18 13:06:22;;;;;;;6.03;3.60;;;14.40;23.30;;;;;;4963014;28;114376;-81
2023/03/18 13:08:59;;;;;;;5.43;3.47;;;14.40;22.70;;;;;;4962173;28;115186;-79